sensor_id;sensor_type;location;lat;lon;timestamp;P1;durP1;ratioP1;P2;durP2;ratioP2
23747;SDS011;12054;53.662;10.126;2023-04-29T00:00:38;17.60;;;10.98;;
23747;SDS011;12054;53.662;10.126;2023-04-29T00:03:04;18.45;;;11.05;;
23747;SDS011;12054;53.662;10.126;2023-04-29T00:05:29;17.98;;;11.45;;
23747;SDS011;12054;53.662;10.126;2023-04-29T00:07:55;17.27;;;10.95;;
23747;SDS011;12054;53.662;10.126;2023-04-29T00:10:21;18.65;;;10.95;;
23747;SDS011;12054;53.662;10.126;2023-04-29T00:12:47;15.90;;;11.10;;
23747;SDS011;12054;53.662;10.126;2023-04-29T00:15:13;18.88;;;11.25;;
23747;SDS011;12054;53.662;10.126;2023-04-29T00:17:39;16.55;;;10.57;;
23747;SDS011;12054;53.662;10.126;2023-04-29T00:20:04;19.20;;;10.85;;
23747;SDS011;12054;53.662;10.126;2023-04-29T00:22:31;16.08;;;10.68;;
23747;SDS011;12054;53.662;10.126;2023-04-29T00:24:57;16.48;;;11.20;;
23747;SDS011;12054;53.662;10.126;2023-04-29T00:27:22;14.65;;;9.25;;
23747;SDS011;12054;53.662;10.126;2023-04-29T00:29:48;16.63;;;10.63;;
23747;SDS011;12054;53.662;10.126;2023-04-29T00:32:13;18.55;;;10.30;;
23747;SDS011;12054;53.662;10.126;2023-04-29T00:34:39;17.65;;;10.73;;
23747;SDS011;12054;53.662;10.126;2023-04-29T00:37:04;16.13;;;10.57;;
23747;SDS011;12054;53.662;10.126;2023-04-29T00:39:30;18.45;;;10.35;;
23747;SDS011;12054;53.662;10.126;2023-04-29T00:41:55;16.60;;;10.75;;
23747;SDS011;12054;53.662;10.126;2023-04-29T00:44:21;19.38;;;10.23;;
23747;SDS011;12054;53.662;10.126;2023-04-29T00:46:46;15.50;;;10.70;;
23747;SDS011;12054;53.662;10.126;2023-04-29T00:49:12;17.00;;;10.93;;
23747;SDS011;12054;53.662;10.126;2023-04-29T00:51:39;17.35;;;10.23;;
23747;SDS011;12054;53.662;10.126;2023-04-29T00:54:05;16.45;;;11.30;;
23747;SDS011;12054;53.662;10.126;2023-04-29T00:56:31;14.25;;;9.93;;
23747;SDS011;12054;53.662;10.126;2023-04-29T00:58:59;18.20;;;10.38;;
23747;SDS011;12054;53.662;10.126;2023-04-29T01:01:26;17.02;;;9.80;;
23747;SDS011;12054;53.662;10.126;2023-04-29T01:03:53;15.85;;;10.70;;
23747;SDS011;12054;53.662;10.126;2023-04-29T01:06:23;17.65;;;10.25;;
23747;SDS011;12054;53.662;10.126;2023-04-29T01:09:16;16.90;;;10.68;;
23747;SDS011;12054;53.662;10.126;2023-04-29T01:14:27;16.02;;;11.48;;
23747;SDS011;12054;53.662;10.126;2023-04-29T01:16:58;19.10;;;12.02;;
23747;SDS011;12054;53.662;10.126;2023-04-29T01:19:39;16.00;;;11.43;;
23747;SDS011;12054;53.662;10.126;2023-04-29T01:22:19;18.05;;;11.73;;
23747;SDS011;12054;53.662;10.126;2023-04-29T01:24:46;16.60;;;11.73;;
23747;SDS011;12054;53.662;10.126;2023-04-29T01:27:32;20.50;;;12.05;;
23747;SDS011;12054;53.662;10.126;2023-04-29T01:30:09;17.55;;;12.25;;
23747;SDS011;12054;53.662;10.126;2023-04-29T01:32:57;19.67;;;12.30;;
23747;SDS011;12054;53.662;10.126;2023-04-29T01:38:06;20.30;;;13.10;;
23747;SDS011;12054;53.662;10.126;2023-04-29T01:41:12;21.10;;;13.05;;
23747;SDS011;12054;53.662;10.126;2023-04-29T01:43:40;21.45;;;13.68;;
23747;SDS011;12054;53.662;10.126;2023-04-29T01:46:10;21.08;;;12.85;;
23747;SDS011;12054;53.662;10.126;2023-04-29T01:48:40;18.90;;;12.40;;
23747;SDS011;12054;53.662;10.126;2023-04-29T01:51:06;19.83;;;12.57;;
23747;SDS011;12054;53.662;10.126;2023-04-29T01:53:31;19.58;;;13.02;;
23747;SDS011;12054;53.662;10.126;2023-04-29T01:55:57;20.40;;;12.98;;
23747;SDS011;12054;53.662;10.126;2023-04-29T01:58:22;18.83;;;13.02;;
23747;SDS011;12054;53.662;10.126;2023-04-29T02:00:48;19.83;;;13.00;;
23747;SDS011;12054;53.662;10.126;2023-04-29T02:03:14;23.23;;;14.35;;
23747;SDS011;12054;53.662;10.126;2023-04-29T02:05:40;21.23;;;13.35;;
23747;SDS011;12054;53.662;10.126;2023-04-29T02:08:06;23.63;;;14.13;;
23747;SDS011;12054;53.662;10.126;2023-04-29T02:10:32;20.83;;;13.00;;
23747;SDS011;12054;53.662;10.126;2023-04-29T02:12:57;20.02;;;13.88;;
23747;SDS011;12054;53.662;10.126;2023-04-29T02:15:25;22.23;;;14.27;;
23747;SDS011;12054;53.662;10.126;2023-04-29T02:17:51;22.77;;;13.77;;
23747;SDS011;12054;53.662;10.126;2023-04-29T02:20:18;22.95;;;14.85;;
23747;SDS011;12054;53.662;10.126;2023-04-29T02:22:43;22.90;;;13.95;;
23747;SDS011;12054;53.662;10.126;2023-04-29T02:25:09;20.20;;;14.20;;
23747;SDS011;12054;53.662;10.126;2023-04-29T02:27:35;20.73;;;13.32;;
23747;SDS011;12054;53.662;10.126;2023-04-29T02:30:01;23.50;;;13.45;;
23747;SDS011;12054;53.662;10.126;2023-04-29T02:32:28;19.52;;;13.38;;
23747;SDS011;12054;53.662;10.126;2023-04-29T02:34:54;21.50;;;13.80;;
23747;SDS011;12054;53.662;10.126;2023-04-29T02:37:20;18.90;;;12.55;;
23747;SDS011;12054;53.662;10.126;2023-04-29T02:39:45;21.50;;;13.43;;
23747;SDS011;12054;53.662;10.126;2023-04-29T02:42:11;19.05;;;12.40;;
23747;SDS011;12054;53.662;10.126;2023-04-29T02:44:37;21.00;;;13.20;;
23747;SDS011;12054;53.662;10.126;2023-04-29T02:47:02;20.23;;;12.68;;
23747;SDS011;12054;53.662;10.126;2023-04-29T02:49:28;21.08;;;12.30;;
23747;SDS011;12054;53.662;10.126;2023-04-29T02:51:53;18.65;;;11.85;;
23747;SDS011;12054;53.662;10.126;2023-04-29T02:54:19;21.08;;;12.85;;
23747;SDS011;12054;53.662;10.126;2023-04-29T02:56:45;21.10;;;13.05;;
23747;SDS011;12054;53.662;10.126;2023-04-29T02:59:11;19.20;;;12.38;;
23747;SDS011;12054;53.662;10.126;2023-04-29T03:01:36;17.30;;;11.75;;
23747;SDS011;12054;53.662;10.126;2023-04-29T03:04:02;18.13;;;12.35;;
23747;SDS011;12054;53.662;10.126;2023-04-29T03:06:29;20.45;;;13.05;;
23747;SDS011;12054;53.662;10.126;2023-04-29T03:08:55;18.35;;;12.20;;
23747;SDS011;12054;53.662;10.126;2023-04-29T03:11:21;22.10;;;12.88;;
23747;SDS011;12054;53.662;10.126;2023-04-29T03:13:48;19.08;;;13.00;;
23747;SDS011;12054;53.662;10.126;2023-04-29T03:16:14;18.33;;;12.18;;
23747;SDS011;12054;53.662;10.126;2023-04-29T03:18:41;20.95;;;12.05;;
23747;SDS011;12054;53.662;10.126;2023-04-29T03:21:07;21.85;;;13.55;;
23747;SDS011;12054;53.662;10.126;2023-04-29T03:23:32;22.70;;;12.88;;
23747;SDS011;12054;53.662;10.126;2023-04-29T03:25:58;20.13;;;12.23;;
23747;SDS011;12054;53.662;10.126;2023-04-29T03:28:24;21.02;;;12.60;;
23747;SDS011;12054;53.662;10.126;2023-04-29T03:30:50;18.58;;;12.48;;
23747;SDS011;12054;53.662;10.126;2023-04-29T03:33:15;18.55;;;12.30;;
23747;SDS011;12054;53.662;10.126;2023-04-29T03:35:41;20.10;;;12.38;;
23747;SDS011;12054;53.662;10.126;2023-04-29T03:38:06;21.88;;;12.93;;
23747;SDS011;12054;53.662;10.126;2023-04-29T03:40:32;20.20;;;12.93;;
23747;SDS011;12054;53.662;10.126;2023-04-29T03:42:57;19.83;;;12.60;;
23747;SDS011;12054;53.662;10.126;2023-04-29T03:45:24;19.60;;;12.80;;
23747;SDS011;12054;53.662;10.126;2023-04-29T03:47:50;18.92;;;12.60;;
23747;SDS011;12054;53.662;10.126;2023-04-29T03:50:17;19.95;;;12.43;;
23747;SDS011;12054;53.662;10.126;2023-04-29T03:52:42;21.35;;;12.85;;
23747;SDS011;12054;53.662;10.126;2023-04-29T03:55:08;18.45;;;12.82;;
23747;SDS011;12054;53.662;10.126;2023-04-29T03:57:34;21.95;;;13.32;;
23747;SDS011;12054;53.662;10.126;2023-04-29T03:59:59;19.00;;;12.77;;
23747;SDS011;12054;53.662;10.126;2023-04-29T04:02:25;16.85;;;12.57;;
23747;SDS011;12054;53.662;10.126;2023-04-29T04:04:51;18.77;;;13.45;;
23747;SDS011;12054;53.662;10.126;2023-04-29T04:07:18;18.88;;;12.48;;
23747;SDS011;12054;53.662;10.126;2023-04-29T04:09:43;20.27;;;12.25;;
23747;SDS011;12054;53.662;10.126;2023-04-29T04:12:09;20.40;;;12.70;;
23747;SDS011;12054;53.662;10.126;2023-04-29T04:14:35;18.77;;;12.95;;
23747;SDS011;12054;53.662;10.126;2023-04-29T04:17:00;19.13;;;12.73;;
23747;SDS011;12054;53.662;10.126;2023-04-29T04:19:28;18.70;;;13.70;;
23747;SDS011;12054;53.662;10.126;2023-04-29T04:21:54;22.27;;;13.38;;
23747;SDS011;12054;53.662;10.126;2023-04-29T04:24:20;19.42;;;13.60;;
23747;SDS011;12054;53.662;10.126;2023-04-29T04:26:46;18.48;;;12.48;;
23747;SDS011;12054;53.662;10.126;2023-04-29T04:29:12;20.48;;;13.18;;
23747;SDS011;12054;53.662;10.126;2023-04-29T04:31:38;19.42;;;12.88;;
23747;SDS011;12054;53.662;10.126;2023-04-29T04:34:03;17.17;;;12.45;;
23747;SDS011;12054;53.662;10.126;2023-04-29T04:36:29;20.77;;;12.07;;
23747;SDS011;12054;53.662;10.126;2023-04-29T04:38:54;21.77;;;12.93;;
23747;SDS011;12054;53.662;10.126;2023-04-29T04:41:20;18.65;;;12.35;;
23747;SDS011;12054;53.662;10.126;2023-04-29T04:43:45;18.42;;;11.90;;
23747;SDS011;12054;53.662;10.126;2023-04-29T04:46:11;17.63;;;11.80;;
23747;SDS011;12054;53.662;10.126;2023-04-29T04:48:38;19.27;;;12.07;;
23747;SDS011;12054;53.662;10.126;2023-04-29T04:51:11;16.90;;;11.73;;
23747;SDS011;12054;53.662;10.126;2023-04-29T04:53:37;18.50;;;11.15;;
23747;SDS011;12054;53.662;10.126;2023-04-29T04:56:03;19.20;;;11.38;;
23747;SDS011;12054;53.662;10.126;2023-04-29T04:58:30;19.63;;;11.60;;
23747;SDS011;12054;53.662;10.126;2023-04-29T05:00:56;16.38;;;11.23;;
23747;SDS011;12054;53.662;10.126;2023-04-29T05:03:22;15.50;;;10.95;;
23747;SDS011;12054;53.662;10.126;2023-04-29T05:05:54;15.90;;;10.65;;
23747;SDS011;12054;53.662;10.126;2023-04-29T05:08:20;15.77;;;10.52;;
23747;SDS011;12054;53.662;10.126;2023-04-29T05:10:46;18.48;;;9.82;;
23747;SDS011;12054;53.662;10.126;2023-04-29T05:13:11;15.48;;;10.32;;
23747;SDS011;12054;53.662;10.126;2023-04-29T05:15:37;18.48;;;9.63;;
23747;SDS011;12054;53.662;10.126;2023-04-29T05:18:02;13.25;;;9.00;;
23747;SDS011;12054;53.662;10.126;2023-04-29T05:20:28;12.93;;;8.75;;
23747;SDS011;12054;53.662;10.126;2023-04-29T05:22:53;14.27;;;9.45;;
23747;SDS011;12054;53.662;10.126;2023-04-29T05:25:19;14.00;;;8.27;;
23747;SDS011;12054;53.662;10.126;2023-04-29T05:27:45;12.48;;;8.25;;
23747;SDS011;12054;53.662;10.126;2023-04-29T05:30:10;15.23;;;9.32;;
23747;SDS011;12054;53.662;10.126;2023-04-29T05:32:36;13.25;;;8.30;;
23747;SDS011;12054;53.662;10.126;2023-04-29T05:35:01;11.80;;;8.65;;
23747;SDS011;12054;53.662;10.126;2023-04-29T05:37:27;11.57;;;8.00;;
23747;SDS011;12054;53.662;10.126;2023-04-29T05:39:55;10.98;;;7.85;;
23747;SDS011;12054;53.662;10.126;2023-04-29T05:42:21;11.40;;;8.55;;
23747;SDS011;12054;53.662;10.126;2023-04-29T05:44:47;12.32;;;7.82;;
23747;SDS011;12054;53.662;10.126;2023-04-29T05:47:12;11.88;;;7.68;;
23747;SDS011;12054;53.662;10.126;2023-04-29T05:49:38;11.88;;;7.32;;
23747;SDS011;12054;53.662;10.126;2023-04-29T05:52:04;15.07;;;7.80;;
23747;SDS011;12054;53.662;10.126;2023-04-29T05:54:30;11.43;;;7.13;;
23747;SDS011;12054;53.662;10.126;2023-04-29T05:56:57;13.18;;;7.65;;
23747;SDS011;12054;53.662;10.126;2023-04-29T05:59:23;12.20;;;8.00;;
23747;SDS011;12054;53.662;10.126;2023-04-29T06:01:49;13.13;;;8.00;;
23747;SDS011;12054;53.662;10.126;2023-04-29T06:04:14;12.00;;;7.53;;
23747;SDS011;12054;53.662;10.126;2023-04-29T06:06:41;12.68;;;6.82;;
23747;SDS011;12054;53.662;10.126;2023-04-29T06:09:07;10.07;;;6.85;;
23747;SDS011;12054;53.662;10.126;2023-04-29T06:11:33;11.85;;;7.00;;
23747;SDS011;12054;53.662;10.126;2023-04-29T06:13:58;13.98;;;7.60;;
23747;SDS011;12054;53.662;10.126;2023-04-29T06:16:25;13.07;;;7.45;;
23747;SDS011;12054;53.662;10.126;2023-04-29T06:18:50;9.73;;;7.15;;
23747;SDS011;12054;53.662;10.126;2023-04-29T06:21:17;13.82;;;7.82;;
23747;SDS011;12054;53.662;10.126;2023-04-29T06:23:43;12.85;;;7.50;;
23747;SDS011;12054;53.662;10.126;2023-04-29T06:26:09;12.88;;;7.22;;
23747;SDS011;12054;53.662;10.126;2023-04-29T06:28:35;11.65;;;6.82;;
23747;SDS011;12054;53.662;10.126;2023-04-29T06:31:01;12.55;;;7.70;;
23747;SDS011;12054;53.662;10.126;2023-04-29T06:33:26;15.82;;;7.65;;
23747;SDS011;12054;53.662;10.126;2023-04-29T06:35:54;11.18;;;7.25;;
23747;SDS011;12054;53.662;10.126;2023-04-29T06:38:19;11.18;;;6.82;;
23747;SDS011;12054;53.662;10.126;2023-04-29T06:40:45;13.65;;;7.55;;
23747;SDS011;12054;53.662;10.126;2023-04-29T06:43:11;17.13;;;8.07;;
23747;SDS011;12054;53.662;10.126;2023-04-29T06:45:36;11.73;;;7.97;;
23747;SDS011;12054;53.662;10.126;2023-04-29T06:48:02;12.32;;;7.82;;
23747;SDS011;12054;53.662;10.126;2023-04-29T06:50:27;11.77;;;7.00;;
23747;SDS011;12054;53.662;10.126;2023-04-29T06:52:53;13.27;;;7.50;;
23747;SDS011;12054;53.662;10.126;2023-04-29T06:55:18;15.00;;;7.75;;
23747;SDS011;12054;53.662;10.126;2023-04-29T06:57:48;12.40;;;6.93;;
23747;SDS011;12054;53.662;10.126;2023-04-29T07:00:13;14.70;;;6.68;;
23747;SDS011;12054;53.662;10.126;2023-04-29T07:02:39;13.20;;;7.32;;
23747;SDS011;12054;53.662;10.126;2023-04-29T07:05:05;13.15;;;6.70;;
23747;SDS011;12054;53.662;10.126;2023-04-29T07:07:31;10.93;;;6.55;;
23747;SDS011;12054;53.662;10.126;2023-04-29T07:09:56;10.55;;;6.78;;
23747;SDS011;12054;53.662;10.126;2023-04-29T07:12:22;12.57;;;6.93;;
23747;SDS011;12054;53.662;10.126;2023-04-29T07:14:47;12.52;;;6.10;;
23747;SDS011;12054;53.662;10.126;2023-04-29T07:17:16;11.90;;;6.47;;
23747;SDS011;12054;53.662;10.126;2023-04-29T07:19:41;10.40;;;6.18;;
23747;SDS011;12054;53.662;10.126;2023-04-29T07:22:07;9.77;;;6.40;;
23747;SDS011;12054;53.662;10.126;2023-04-29T07:24:33;11.68;;;6.38;;
23747;SDS011;12054;53.662;10.126;2023-04-29T07:26:58;9.35;;;6.07;;
23747;SDS011;12054;53.662;10.126;2023-04-29T07:29:23;9.02;;;5.72;;
23747;SDS011;12054;53.662;10.126;2023-04-29T07:31:49;11.35;;;6.55;;
23747;SDS011;12054;53.662;10.126;2023-04-29T07:34:14;9.85;;;6.07;;
23747;SDS011;12054;53.662;10.126;2023-04-29T07:36:41;12.45;;;6.25;;
23747;SDS011;12054;53.662;10.126;2023-04-29T07:39:07;9.63;;;5.55;;
23747;SDS011;12054;53.662;10.126;2023-04-29T07:41:33;9.40;;;5.80;;
23747;SDS011;12054;53.662;10.126;2023-04-29T07:43:58;9.45;;;6.57;;
23747;SDS011;12054;53.662;10.126;2023-04-29T07:46:24;9.05;;;6.25;;
23747;SDS011;12054;53.662;10.126;2023-04-29T07:48:49;10.75;;;6.07;;
23747;SDS011;12054;53.662;10.126;2023-04-29T07:51:15;7.80;;;5.93;;
23747;SDS011;12054;53.662;10.126;2023-04-29T07:53:41;9.95;;;5.75;;
23747;SDS011;12054;53.662;10.126;2023-04-29T07:56:07;8.77;;;6.38;;
23747;SDS011;12054;53.662;10.126;2023-04-29T07:58:33;10.32;;;6.15;;
23747;SDS011;12054;53.662;10.126;2023-04-29T08:01:09;10.40;;;6.07;;
23747;SDS011;12054;53.662;10.126;2023-04-29T08:03:37;8.65;;;5.95;;
23747;SDS011;12054;53.662;10.126;2023-04-29T08:06:03;9.77;;;5.80;;
23747;SDS011;12054;53.662;10.126;2023-04-29T08:08:29;7.80;;;5.72;;
23747;SDS011;12054;53.662;10.126;2023-04-29T08:10:55;8.75;;;5.90;;
23747;SDS011;12054;53.662;10.126;2023-04-29T08:13:21;9.60;;;5.72;;
23747;SDS011;12054;53.662;10.126;2023-04-29T08:15:47;9.65;;;6.07;;
23747;SDS011;12054;53.662;10.126;2023-04-29T08:18:12;9.02;;;5.75;;
23747;SDS011;12054;53.662;10.126;2023-04-29T08:20:38;10.68;;;5.93;;
23747;SDS011;12054;53.662;10.126;2023-04-29T08:23:03;10.55;;;6.13;;
23747;SDS011;12054;53.662;10.126;2023-04-29T08:25:29;8.77;;;5.10;;
23747;SDS011;12054;53.662;10.126;2023-04-29T08:27:54;8.52;;;5.13;;
23747;SDS011;12054;53.662;10.126;2023-04-29T08:30:20;9.80;;;5.45;;
23747;SDS011;12054;53.662;10.126;2023-04-29T08:32:46;8.15;;;5.55;;
23747;SDS011;12054;53.662;10.126;2023-04-29T08:35:12;8.93;;;5.80;;
23747;SDS011;12054;53.662;10.126;2023-04-29T08:37:38;10.05;;;5.40;;
23747;SDS011;12054;53.662;10.126;2023-04-29T08:40:03;7.45;;;5.10;;
23747;SDS011;12054;53.662;10.126;2023-04-29T08:42:33;7.72;;;5.53;;
23747;SDS011;12054;53.662;10.126;2023-04-29T08:45:00;7.38;;;5.10;;
23747;SDS011;12054;53.662;10.126;2023-04-29T08:47:30;9.15;;;5.70;;
23747;SDS011;12054;53.662;10.126;2023-04-29T08:50:00;6.85;;;5.35;;
23747;SDS011;12054;53.662;10.126;2023-04-29T08:52:30;8.48;;;5.65;;
23747;SDS011;12054;53.662;10.126;2023-04-29T08:54:59;8.82;;;5.72;;
23747;SDS011;12054;53.662;10.126;2023-04-29T08:57:29;8.13;;;6.05;;
23747;SDS011;12054;53.662;10.126;2023-04-29T09:00:03;7.07;;;5.18;;
23747;SDS011;12054;53.662;10.126;2023-04-29T09:02:32;8.20;;;5.75;;
23747;SDS011;12054;53.662;10.126;2023-04-29T09:05:07;11.50;;;5.70;;
23747;SDS011;12054;53.662;10.126;2023-04-29T09:07:35;9.32;;;5.55;;
23747;SDS011;12054;53.662;10.126;2023-04-29T09:10:03;10.25;;;6.35;;
23747;SDS011;12054;53.662;10.126;2023-04-29T09:12:29;6.72;;;5.38;;
23747;SDS011;12054;53.662;10.126;2023-04-29T09:14:55;9.55;;;5.97;;
23747;SDS011;12054;53.662;10.126;2023-04-29T09:23:00;11.20;;;5.78;;
23747;SDS011;12054;53.662;10.126;2023-04-29T09:25:30;9.88;;;5.50;;
23747;SDS011;12054;53.662;10.126;2023-04-29T09:27:56;7.10;;;5.53;;
23747;SDS011;12054;53.662;10.126;2023-04-29T09:30:21;7.88;;;6.22;;
23747;SDS011;12054;53.662;10.126;2023-04-29T09:33:08;9.20;;;6.22;;
23747;SDS011;12054;53.662;10.126;2023-04-29T09:35:33;10.80;;;5.40;;
23747;SDS011;12054;53.662;10.126;2023-04-29T09:38:10;9.02;;;5.93;;
23747;SDS011;12054;53.662;10.126;2023-04-29T09:40:37;7.60;;;5.47;;
23747;SDS011;12054;53.662;10.126;2023-04-29T09:43:03;9.48;;;6.25;;
23747;SDS011;12054;53.662;10.126;2023-04-29T09:45:38;7.78;;;5.80;;
23747;SDS011;12054;53.662;10.126;2023-04-29T09:48:08;11.05;;;5.97;;
23747;SDS011;12054;53.662;10.126;2023-04-29T09:50:35;10.05;;;6.15;;
23747;SDS011;12054;53.662;10.126;2023-04-29T09:53:05;8.05;;;5.40;;
23747;SDS011;12054;53.662;10.126;2023-04-29T09:55:35;9.93;;;5.97;;
23747;SDS011;12054;53.662;10.126;2023-04-29T09:58:01;10.50;;;6.68;;
23747;SDS011;12054;53.662;10.126;2023-04-29T10:00:29;8.38;;;6.13;;
23747;SDS011;12054;53.662;10.126;2023-04-29T10:02:59;8.30;;;6.05;;
23747;SDS011;12054;53.662;10.126;2023-04-29T10:05:28;9.52;;;6.22;;
23747;SDS011;12054;53.662;10.126;2023-04-29T10:07:54;10.10;;;6.55;;
23747;SDS011;12054;53.662;10.126;2023-04-29T10:10:21;7.55;;;5.88;;
23747;SDS011;12054;53.662;10.126;2023-04-29T10:12:48;7.03;;;5.50;;
23747;SDS011;12054;53.662;10.126;2023-04-29T10:17:53;7.82;;;5.55;;
23747;SDS011;12054;53.662;10.126;2023-04-29T10:20:23;10.02;;;5.95;;
23747;SDS011;12054;53.662;10.126;2023-04-29T10:22:50;7.28;;;4.95;;
23747;SDS011;12054;53.662;10.126;2023-04-29T10:25:19;7.28;;;4.30;;
23747;SDS011;12054;53.662;10.126;2023-04-29T10:27:46;7.65;;;5.10;;
23747;SDS011;12054;53.662;10.126;2023-04-29T10:30:16;7.43;;;5.18;;
23747;SDS011;12054;53.662;10.126;2023-04-29T10:32:43;6.57;;;4.78;;
23747;SDS011;12054;53.662;10.126;2023-04-29T10:35:12;6.68;;;4.97;;
23747;SDS011;12054;53.662;10.126;2023-04-29T10:37:39;7.18;;;5.25;;
23747;SDS011;12054;53.662;10.126;2023-04-29T10:42:55;10.23;;;5.57;;
23747;SDS011;12054;53.662;10.126;2023-04-29T10:45:25;7.55;;;5.60;;
23747;SDS011;12054;53.662;10.126;2023-04-29T10:50:39;9.30;;;5.13;;
23747;SDS011;12054;53.662;10.126;2023-04-29T10:53:14;9.00;;;5.72;;
23747;SDS011;12054;53.662;10.126;2023-04-29T10:55:41;7.90;;;5.40;;
23747;SDS011;12054;53.662;10.126;2023-04-29T11:00:59;7.35;;;5.28;;
23747;SDS011;12054;53.662;10.126;2023-04-29T11:06:14;6.90;;;5.38;;
23747;SDS011;12054;53.662;10.126;2023-04-29T11:08:40;8.82;;;5.47;;
23747;SDS011;12054;53.662;10.126;2023-04-29T11:11:07;7.55;;;5.63;;
23747;SDS011;12054;53.662;10.126;2023-04-29T11:13:36;7.55;;;5.60;;
23747;SDS011;12054;53.662;10.126;2023-04-29T11:18:30;9.63;;;6.00;;
23747;SDS011;12054;53.662;10.126;2023-04-29T11:23:33;8.73;;;5.72;;
23747;SDS011;12054;53.662;10.126;2023-04-29T11:26:03;7.70;;;6.10;;
23747;SDS011;12054;53.662;10.126;2023-04-29T11:28:30;10.20;;;5.57;;
23747;SDS011;12054;53.662;10.126;2023-04-29T11:30:56;10.93;;;6.07;;
23747;SDS011;12054;53.662;10.126;2023-04-29T11:33:25;9.40;;;6.30;;
23747;SDS011;12054;53.662;10.126;2023-04-29T11:35:52;8.93;;;6.53;;
23747;SDS011;12054;53.662;10.126;2023-04-29T11:38:23;9.30;;;6.43;;
23747;SDS011;12054;53.662;10.126;2023-04-29T11:40:53;8.05;;;5.50;;
23747;SDS011;12054;53.662;10.126;2023-04-29T11:43:19;8.55;;;6.00;;
23747;SDS011;12054;53.662;10.126;2023-04-29T11:45:47;7.80;;;5.57;;
23747;SDS011;12054;53.662;10.126;2023-04-29T11:48:20;9.05;;;6.35;;
23747;SDS011;12054;53.662;10.126;2023-04-29T11:50:46;8.27;;;5.60;;
23747;SDS011;12054;53.662;10.126;2023-04-29T11:53:23;8.75;;;5.93;;
23747;SDS011;12054;53.662;10.126;2023-04-29T11:55:51;9.05;;;5.63;;
23747;SDS011;12054;53.662;10.126;2023-04-29T11:58:19;7.13;;;5.57;;
23747;SDS011;12054;53.662;10.126;2023-04-29T12:00:48;7.75;;;5.70;;
23747;SDS011;12054;53.662;10.126;2023-04-29T12:03:14;7.35;;;5.25;;
23747;SDS011;12054;53.662;10.126;2023-04-29T12:05:49;8.65;;;6.28;;
23747;SDS011;12054;53.662;10.126;2023-04-29T12:08:19;8.32;;;5.40;;
23747;SDS011;12054;53.662;10.126;2023-04-29T12:10:48;8.43;;;5.13;;
23747;SDS011;12054;53.662;10.126;2023-04-29T12:13:15;8.40;;;5.40;;
23747;SDS011;12054;53.662;10.126;2023-04-29T12:15:41;7.45;;;4.90;;
23747;SDS011;12054;53.662;10.126;2023-04-29T12:18:11;6.60;;;4.78;;
23747;SDS011;12054;53.662;10.126;2023-04-29T12:20:37;5.68;;;4.35;;
23747;SDS011;12054;53.662;10.126;2023-04-29T12:23:15;5.55;;;4.22;;
23747;SDS011;12054;53.662;10.126;2023-04-29T12:25:51;5.97;;;4.65;;
23747;SDS011;12054;53.662;10.126;2023-04-29T12:28:24;6.43;;;5.13;;
23747;SDS011;12054;53.662;10.126;2023-04-29T12:30:51;7.35;;;4.93;;
23747;SDS011;12054;53.662;10.126;2023-04-29T12:33:22;6.57;;;4.60;;
23747;SDS011;12054;53.662;10.126;2023-04-29T12:35:49;6.38;;;5.05;;
23747;SDS011;12054;53.662;10.126;2023-04-29T12:38:18;7.18;;;4.80;;
23747;SDS011;12054;53.662;10.126;2023-04-29T12:40:48;8.32;;;4.32;;
23747;SDS011;12054;53.662;10.126;2023-04-29T12:43:15;5.65;;;4.32;;
23747;SDS011;12054;53.662;10.126;2023-04-29T12:45:41;5.78;;;4.40;;
23747;SDS011;12054;53.662;10.126;2023-04-29T12:48:06;5.55;;;4.15;;
23747;SDS011;12054;53.662;10.126;2023-04-29T12:50:33;6.18;;;3.92;;
23747;SDS011;12054;53.662;10.126;2023-04-29T12:53:02;6.85;;;3.97;;
23747;SDS011;12054;53.662;10.126;2023-04-29T12:55:33;5.05;;;3.88;;
23747;SDS011;12054;53.662;10.126;2023-04-29T12:58:02;6.18;;;3.78;;
23747;SDS011;12054;53.662;10.126;2023-04-29T13:00:28;4.88;;;3.60;;
23747;SDS011;12054;53.662;10.126;2023-04-29T13:02:54;6.32;;;3.38;;
23747;SDS011;12054;53.662;10.126;2023-04-29T13:05:20;5.18;;;3.25;;
23747;SDS011;12054;53.662;10.126;2023-04-29T13:07:46;5.85;;;3.55;;
23747;SDS011;12054;53.662;10.126;2023-04-29T13:10:12;5.05;;;3.28;;
23747;SDS011;12054;53.662;10.126;2023-04-29T13:12:38;5.95;;;3.40;;
23747;SDS011;12054;53.662;10.126;2023-04-29T13:15:04;4.78;;;3.58;;
23747;SDS011;12054;53.662;10.126;2023-04-29T13:17:33;6.75;;;4.28;;
23747;SDS011;12054;53.662;10.126;2023-04-29T13:19:59;6.57;;;4.65;;
23747;SDS011;12054;53.662;10.126;2023-04-29T13:22:24;6.43;;;4.80;;
23747;SDS011;12054;53.662;10.126;2023-04-29T13:24:50;9.18;;;4.80;;
23747;SDS011;12054;53.662;10.126;2023-04-29T13:27:16;4.95;;;4.25;;
23747;SDS011;12054;53.662;10.126;2023-04-29T13:29:43;5.65;;;3.92;;
23747;SDS011;12054;53.662;10.126;2023-04-29T13:32:08;4.47;;;3.70;;
23747;SDS011;12054;53.662;10.126;2023-04-29T13:34:35;6.22;;;3.78;;
23747;SDS011;12054;53.662;10.126;2023-04-29T13:37:17;6.15;;;3.42;;
23747;SDS011;12054;53.662;10.126;2023-04-29T13:39:47;6.45;;;3.58;;
23747;SDS011;12054;53.662;10.126;2023-04-29T13:42:17;4.18;;;3.45;;
23747;SDS011;12054;53.662;10.126;2023-04-29T13:44:47;5.22;;;3.28;;
23747;SDS011;12054;53.662;10.126;2023-04-29T13:47:14;5.38;;;3.40;;
23747;SDS011;12054;53.662;10.126;2023-04-29T13:52:30;4.40;;;2.90;;
23747;SDS011;12054;53.662;10.126;2023-04-29T13:54:59;5.30;;;2.85;;
23747;SDS011;12054;53.662;10.126;2023-04-29T13:57:41;4.63;;;2.58;;
23747;SDS011;12054;53.662;10.126;2023-04-29T14:00:06;4.22;;;2.63;;
23747;SDS011;12054;53.662;10.126;2023-04-29T14:02:38;4.85;;;2.30;;
23747;SDS011;12054;53.662;10.126;2023-04-29T14:05:04;4.25;;;2.00;;
23747;SDS011;12054;53.662;10.126;2023-04-29T14:07:46;3.42;;;2.00;;
23747;SDS011;12054;53.662;10.126;2023-04-29T14:10:12;3.42;;;2.30;;
23747;SDS011;12054;53.662;10.126;2023-04-29T14:12:37;4.25;;;2.30;;
23747;SDS011;12054;53.662;10.126;2023-04-29T14:15:03;4.95;;;2.05;;
23747;SDS011;12054;53.662;10.126;2023-04-29T14:17:31;3.92;;;2.25;;
23747;SDS011;12054;53.662;10.126;2023-04-29T14:19:57;5.13;;;2.28;;
23747;SDS011;12054;53.662;10.126;2023-04-29T14:25:28;3.55;;;2.60;;
23747;SDS011;12054;53.662;10.126;2023-04-29T14:30:53;2.85;;;2.15;;
23747;SDS011;12054;53.662;10.126;2023-04-29T14:33:19;4.20;;;2.47;;
23747;SDS011;12054;53.662;10.126;2023-04-29T14:35:45;3.00;;;2.30;;
23747;SDS011;12054;53.662;10.126;2023-04-29T14:38:10;3.47;;;2.20;;
23747;SDS011;12054;53.662;10.126;2023-04-29T14:40:38;4.50;;;2.22;;
23747;SDS011;12054;53.662;10.126;2023-04-29T14:43:04;4.70;;;2.33;;
23747;SDS011;12054;53.662;10.126;2023-04-29T14:48:31;2.97;;;1.77;;
23747;SDS011;12054;53.662;10.126;2023-04-29T14:50:57;3.00;;;1.60;;
23747;SDS011;12054;53.662;10.126;2023-04-29T14:53:22;3.03;;;1.80;;
23747;SDS011;12054;53.662;10.126;2023-04-29T14:55:48;2.85;;;2.05;;
23747;SDS011;12054;53.662;10.126;2023-04-29T14:58:14;2.15;;;1.55;;
23747;SDS011;12054;53.662;10.126;2023-04-29T15:00:40;2.05;;;1.52;;
23747;SDS011;12054;53.662;10.126;2023-04-29T15:03:06;1.55;;;1.40;;
23747;SDS011;12054;53.662;10.126;2023-04-29T15:05:31;1.52;;;1.42;;